CheckWX is a tool to help pilots better visualize weather data.  It is not intended as a substitute for an official pre-flight weather briefing.

07:11:21 UTC

PGSN TAF
Francisco C Ada / Saipan International Airport
Saipan Island, North Mariana Islands
PGSN 200523Z 2006/2106 11015KT P6SM VCSH FEW018 SCT025

Jun-20@
06:00 UTC

Jun-20 @ 06:00 UTC

Jun-21@
06:00 UTC

Jun-21 @ 06:00 UTC

PGSN 200523Z 2006/2106 11015KT P6SM VCSH FEW018 SCT025
Wind
  • 110° at 15 KTS
Cloud Levels
  • Few at 1,800' AGL
  • Scattered at 2,500' AGL